createdAt,value
2022-11-03T05:15:16.252Z,79.29
2022-11-03T05:17:42.665Z,80.08
2022-11-03T05:20:34.677Z,80.63
2022-11-03T05:23:02.729Z,80.94
2022-11-03T05:25:39.309Z,80.82
2022-11-03T05:28:17.267Z,81.30
2022-11-03T05:30:43.780Z,80.89
2022-11-03T05:33:31.003Z,81.58
2022-11-03T05:36:00.733Z,80.21
2022-11-03T05:38:31.739Z,80.02
2022-11-03T05:40:59.206Z,80.54
2022-11-03T05:43:26.215Z,80.48
2022-11-03T05:45:56.774Z,80.34
2022-11-03T05:48:40.647Z,80.11
2022-11-03T05:51:30.336Z,79.62
2022-11-03T05:53:59.150Z,81.05
2022-11-03T05:56:25.724Z,80.46
2022-11-03T05:59:01.083Z,80.83
2022-11-03T06:01:33.990Z,80.81
2022-11-03T06:04:12.454Z,80.16
2022-11-03T06:06:39.244Z,79.93
2022-11-03T06:09:18.841Z,80.71
2022-11-03T06:11:46.434Z,80.11
2022-11-03T06:14:24.369Z,80.13
2022-11-03T06:16:56.154Z,80.56
2022-11-03T06:19:37.837Z,80.47
2022-11-03T06:22:24.338Z,80.22
2022-11-03T06:24:52.092Z,81.15
2022-11-03T06:27:23.738Z,80.38
2022-11-03T06:30:01.664Z,81.24
2022-11-03T06:32:29.026Z,80.55
2022-11-03T06:34:57.792Z,80.20
2022-11-03T06:37:34.980Z,80.21
2022-11-03T06:40:10.493Z,80.01
2022-11-03T06:42:41.333Z,80.61
2022-11-03T06:45:22.904Z,81.46
2022-11-03T06:47:50.490Z,81.94
2022-11-03T06:50:29.289Z,81.15
2022-11-03T06:52:57.670Z,80.37
2022-11-03T06:55:29.309Z,80.14
2022-11-03T06:58:02.813Z,80.18
2022-11-03T07:00:36.222Z,79.99
2022-11-03T07:03:26.683Z,80.33
2022-11-03T07:06:24.419Z,80.46
2022-11-03T07:08:54.591Z,79.83
2022-11-03T07:11:22.809Z,79.99
2022-11-03T07:13:56.472Z,79.79
2022-11-03T07:16:33.620Z,79.78
2022-11-03T07:19:03.183Z,79.40
2022-11-03T07:21:47.725Z,79.12
2022-11-03T07:24:14.168Z,79.01
2022-11-03T07:26:40.625Z,79.06
2022-11-03T07:29:14.274Z,78.70
2022-11-03T07:31:40.667Z,79.49
2022-11-03T07:34:15.272Z,80.26
2022-11-03T07:36:43.667Z,80.49
2022-11-03T07:39:16.005Z,79.38
2022-11-03T07:41:42.464Z,80.49
2022-11-03T07:44:14.375Z,80.74
2022-11-03T07:46:43.359Z,80.99
2022-11-03T07:49:24.594Z,81.18
2022-11-03T07:51:52.159Z,80.64
2022-11-03T07:54:26.826Z,80.27
2022-11-03T07:56:58.009Z,80.06
2022-11-03T07:59:36.679Z,80.93
2022-11-03T08:02:20.308Z,81.12
2022-11-03T08:04:46.961Z,81.26
2022-11-03T08:07:13.387Z,80.97
2022-11-03T08:09:39.830Z,80.56
2022-11-03T08:12:06.497Z,81.64
2022-11-03T08:14:33.879Z,80.68
2022-11-03T08:17:00.318Z,81.06
2022-11-03T08:19:26.734Z,80.76
2022-11-03T08:21:53.376Z,80.62
2022-11-03T08:24:19.808Z,79.82
2022-11-03T08:26:46.271Z,79.79
2022-11-03T08:29:12.734Z,80.08
2022-11-03T08:31:39.140Z,79.38
2022-11-03T08:34:05.561Z,79.33
2022-11-03T08:36:31.955Z,79.50
2022-11-03T08:38:58.354Z,80.24
2022-11-03T08:41:24.803Z,79.63
2022-11-03T08:43:51.278Z,79.78
2022-11-03T08:46:18.483Z,79.66
2022-11-03T08:48:45.929Z,80.14
2022-11-03T08:51:14.167Z,79.92
2022-11-03T08:53:42.579Z,80.10
2022-11-03T08:56:12.277Z,80.29
2022-11-03T08:58:40.021Z,79.82
2022-11-03T09:01:06.475Z,81.01
2022-11-03T09:03:32.931Z,79.73
2022-11-03T09:05:59.453Z,79.47
2022-11-03T09:11:12.355Z,77.98
2022-11-03T09:13:38.807Z,77.84
2022-11-03T09:16:05.559Z,77.39
2022-11-03T09:18:33.963Z,76.97
2022-11-03T09:21:00.373Z,76.21
2022-11-03T09:23:27.322Z,75.43
2022-11-03T09:25:53.734Z,74.85
2022-11-03T09:28:20.138Z,75.11
2022-11-03T09:30:46.566Z,73.90
2022-11-03T09:33:12.991Z,73.29
2022-11-03T09:35:39.412Z,73.19
2022-11-03T09:38:08.014Z,72.68
2022-11-03T09:40:35.975Z,71.86
2022-11-03T09:43:02.692Z,71.79
2022-11-03T09:45:29.154Z,70.80
2022-11-03T09:47:56.570Z,70.52
2022-11-03T09:50:23.354Z,69.67
2022-11-03T09:52:55.215Z,70.21
2022-11-03T09:55:26.708Z,69.85
2022-11-03T09:57:57.445Z,69.06
2022-11-03T10:00:24.442Z,69.07
2022-11-03T10:02:51.052Z,68.72
2022-11-03T10:05:24.344Z,68.46
2022-11-03T10:07:56.534Z,68.11
2022-11-03T10:10:47.855Z,67.65
2022-11-03T10:13:23.896Z,67.75
2022-11-03T10:15:50.457Z,66.75
2022-11-03T10:18:18.883Z,66.26
2022-11-03T10:20:45.729Z,65.62
2022-11-03T10:23:12.195Z,65.02
2022-11-03T10:25:43.644Z,64.47
2022-11-03T10:28:17.585Z,64.60
2022-11-03T10:31:11.441Z,63.99
2022-11-03T10:33:40.635Z,62.98
2022-11-03T10:36:16.218Z,63.04
2022-11-03T10:38:44.157Z,62.49
2022-11-03T10:41:13.572Z,62.64
2022-11-03T10:43:41.704Z,62.54
2022-11-03T10:46:29.460Z,62.45
2022-11-03T10:49:10.093Z,61.39
2022-11-03T10:51:37.201Z,62.25
2022-11-03T10:54:05.938Z,61.31
2022-11-03T10:56:33.041Z,61.73
2022-11-03T10:59:00.827Z,62.22
2022-11-03T11:01:27.530Z,62.49
2022-11-03T11:03:55.239Z,62.18
2022-11-03T11:06:29.753Z,62.98
2022-11-03T11:09:04.903Z,62.31
2022-11-03T11:11:31.822Z,63.25
2022-11-03T11:14:26.212Z,63.43
2022-11-03T11:16:57.551Z,62.85
2022-11-03T11:19:26.049Z,62.22
2022-11-03T11:21:52.496Z,62.23
2022-11-03T11:24:43.874Z,61.38
2022-11-03T11:27:33.279Z,60.77
2022-11-03T11:30:01.565Z,60.61
2022-11-03T11:32:40.124Z,59.91
2022-11-03T11:35:11.180Z,59.87
2022-11-03T11:37:38.447Z,59.95
2022-11-03T11:40:23.197Z,60.27
2022-11-03T11:43:10.919Z,59.67
2022-11-03T11:46:15.438Z,60.19
2022-11-03T11:48:42.104Z,60.43
2022-11-03T11:51:11.996Z,60.66
2022-11-03T11:53:43.157Z,60.33
2022-11-03T11:56:16.367Z,60.34
2022-11-03T11:58:48.468Z,60.46
2022-11-03T12:01:31.211Z,61.70
2022-11-03T12:04:00.914Z,61.88
2022-11-03T12:06:37.899Z,62.44
2022-11-03T12:09:15.276Z,62.73
2022-11-03T12:11:46.994Z,62.59
2022-11-03T12:14:34.414Z,62.89
2022-11-03T12:17:16.153Z,62.72
2022-11-03T12:19:53.072Z,62.62
2022-11-03T12:22:29.361Z,62.77
2022-11-03T12:25:00.690Z,62.78
2022-11-03T12:27:27.060Z,63.97
2022-11-03T12:30:01.265Z,63.59
2022-11-03T12:32:35.796Z,64.45
2022-11-03T12:35:08.359Z,66.02
2022-11-03T12:37:35.218Z,64.55
2022-11-03T12:40:01.702Z,63.25
2022-11-03T12:42:28.404Z,63.53
2022-11-03T12:44:55.841Z,64.81
2022-11-03T12:47:22.235Z,64.37
2022-11-03T12:49:49.047Z,64.50
2022-11-03T12:52:16.025Z,64.22
2022-11-03T12:54:42.577Z,63.93
2022-11-03T12:57:09.342Z,63.90
2022-11-03T12:59:35.871Z,63.84
2022-11-03T13:02:02.546Z,64.03
2022-11-03T13:04:29.109Z,64.96
2022-11-03T13:06:55.612Z,64.85
2022-11-03T13:09:40.287Z,64.45
2022-11-03T13:12:25.357Z,65.11
2022-11-03T13:14:51.851Z,64.72
2022-11-03T13:17:18.248Z,65.26
2022-11-03T13:19:44.771Z,65.37
2022-11-03T13:22:11.296Z,65.39
2022-11-03T13:24:38.486Z,65.20
2022-11-03T13:27:06.111Z,65.85
2022-11-03T13:29:35.415Z,66.53
2022-11-03T13:32:03.544Z,65.90
2022-11-03T13:34:30.575Z,65.91
2022-11-03T13:36:57.386Z,65.44
2022-11-03T13:39:23.901Z,64.99
2022-11-03T13:41:50.988Z,65.05
2022-11-03T13:44:17.473Z,63.95
2022-11-03T13:46:44.102Z,64.40
2022-11-03T13:51:57.638Z,63.50
2022-11-03T13:59:59.017Z,64.33
2022-11-03T14:05:14.939Z,64.22
2022-11-03T14:07:41.410Z,64.51
2022-11-03T14:10:08.161Z,64.62
2022-11-03T14:12:36.055Z,64.47
2022-11-03T14:15:08.778Z,64.44
2022-11-03T14:17:35.969Z,64.48
2022-11-03T14:20:07.093Z,65.11
2022-11-03T14:22:33.835Z,65.10
2022-11-03T14:25:01.391Z,64.71
2022-11-03T14:27:28.602Z,64.85
2022-11-03T14:29:55.108Z,65.13
2022-11-03T14:32:21.588Z,65.64
2022-11-03T14:34:48.509Z,66.47
2022-11-03T14:37:15.286Z,66.55
2022-11-03T14:39:42.077Z,66.87
2022-11-03T14:42:15.199Z,66.57
2022-11-03T14:44:43.433Z,66.44
2022-11-03T14:47:12.433Z,66.75
2022-11-03T14:49:38.929Z,66.55
2022-11-03T14:52:07.294Z,66.76
2022-11-03T14:54:34.869Z,66.42
2022-11-03T14:57:01.890Z,66.00
2022-11-03T14:59:28.675Z,65.94
2022-11-03T15:01:55.924Z,65.71
2022-11-03T15:04:22.594Z,65.59
2022-11-03T15:06:49.501Z,65.81
2022-11-03T15:09:16.250Z,65.84
2022-11-03T15:11:43.914Z,65.67
2022-11-03T15:14:11.766Z,65.76
2022-11-03T15:16:38.446Z,66.51
2022-11-03T15:19:06.616Z,66.25
2022-11-03T15:21:33.572Z,67.22
2022-11-03T15:26:46.730Z,66.64
2022-11-03T15:29:13.488Z,67.29
2022-11-03T15:31:47.279Z,66.88
2022-11-03T15:34:15.149Z,66.88
2022-11-03T15:36:42.603Z,67.68
2022-11-03T15:39:09.013Z,67.56
2022-11-03T15:41:36.648Z,67.68
2022-11-03T15:44:03.180Z,68.13
2022-11-03T15:46:29.618Z,68.21
2022-11-03T15:48:57.520Z,68.99
2022-11-03T15:51:24.323Z,69.07
2022-11-03T15:53:56.768Z,69.57
2022-11-03T15:56:25.617Z,69.42
2022-11-03T15:58:52.114Z,69.21
2022-11-03T16:01:18.728Z,69.64
2022-11-03T16:03:45.337Z,69.55
2022-11-03T16:06:11.790Z,69.49
2022-11-03T16:08:38.207Z,69.82
2022-11-03T16:11:04.762Z,70.08
2022-11-03T16:13:31.249Z,70.80
2022-11-03T16:15:58.314Z,71.61
2022-11-03T16:18:25.166Z,72.22
2022-11-03T16:20:52.158Z,72.86
2022-11-03T16:23:18.694Z,73.36
2022-11-03T16:25:45.139Z,73.62
2022-11-03T16:28:11.678Z,74.28
2022-11-03T16:30:38.813Z,74.73
2022-11-03T16:33:05.641Z,74.96
2022-11-03T16:35:32.130Z,75.31
2022-11-03T16:37:58.768Z,75.52
2022-11-03T16:40:25.426Z,75.94
2022-11-03T16:42:52.070Z,75.61
2022-11-03T16:45:21.552Z,75.46
2022-11-03T16:47:49.599Z,75.54
2022-11-03T16:50:16.956Z,76.14
2022-11-03T16:52:44.805Z,76.76
2022-11-03T16:55:12.008Z,77.42
2022-11-03T16:57:39.388Z,77.59
2022-11-03T17:00:08.443Z,77.92
2022-11-03T17:02:35.103Z,78.65
2022-11-03T17:05:01.894Z,78.74
2022-11-03T17:07:29.157Z,79.45
2022-11-03T17:09:56.470Z,79.57
2022-11-03T17:12:23.519Z,79.54
2022-11-03T17:14:54.105Z,80.48
2022-11-03T17:17:30.024Z,80.38
2022-11-03T17:19:59.008Z,81.06
2022-11-03T17:23:36.822Z,81.27
2022-11-03T17:26:06.136Z,81.41
2022-11-03T17:28:33.053Z,82.43
2022-11-03T17:30:59.543Z,82.55
2022-11-03T17:33:26.039Z,83.43
2022-11-03T17:35:52.485Z,83.04
2022-11-03T17:38:19.033Z,83.27
2022-11-03T17:40:47.517Z,83.04
2022-11-03T17:43:38.024Z,84.00
2022-11-03T17:46:04.739Z,83.56
2022-11-03T17:48:31.804Z,82.99
2022-11-03T17:50:58.670Z,83.00
2022-11-03T17:53:28.692Z,83.12
2022-11-03T17:56:27.903Z,83.34
2022-11-03T17:58:46.944Z,83.42
2022-11-03T18:01:25.033Z,83.31
2022-11-03T18:03:54.610Z,83.99
2022-11-03T18:06:21.984Z,84.78
2022-11-03T18:08:49.200Z,84.90
2022-11-03T18:11:42.959Z,84.88
2022-11-03T18:14:09.490Z,84.52
2022-11-03T18:16:35.953Z,84.40
2022-11-03T18:19:02.484Z,85.12
2022-11-03T18:21:30.134Z,85.38
2022-11-03T18:23:56.803Z,85.83
2022-11-03T18:26:26.307Z,86.78
2022-11-03T18:28:53.726Z,87.02
2022-11-03T18:31:34.423Z,86.52
2022-11-03T18:34:06.707Z,85.92
2022-11-03T18:36:34.164Z,85.69
2022-11-03T18:39:01.779Z,85.35
2022-11-03T18:41:40.595Z,85.28
2022-11-03T18:44:28.429Z,85.01
2022-11-03T18:46:55.642Z,84.86
2022-11-03T18:49:23.433Z,84.92
2022-11-03T18:52:02.537Z,85.43
2022-11-03T18:54:31.503Z,85.94
2022-11-03T18:56:58.456Z,86.42
2022-11-03T18:59:28.654Z,86.40
2022-11-03T19:01:55.306Z,86.13
2022-11-03T19:04:21.839Z,87.72
2022-11-03T19:06:50.174Z,87.71
2022-11-03T19:09:20.357Z,88.29
2022-11-03T19:11:48.670Z,88.53
2022-11-03T19:14:23.024Z,91.21
2022-11-03T19:17:21.299Z,91.37
2022-11-03T19:19:39.176Z,91.78
2022-11-03T19:22:11.898Z,91.55
2022-11-03T19:24:38.311Z,90.28
2022-11-03T19:27:06.502Z,90.01
2022-11-03T19:29:38.136Z,90.20
2022-11-03T19:32:05.067Z,90.54
2022-11-03T19:34:35.099Z,90.16
2022-11-03T19:37:01.778Z,90.30
2022-11-03T19:39:36.766Z,90.89
2022-11-03T19:42:28.673Z,91.87
2022-11-03T19:45:00.711Z,91.64
2022-11-03T19:47:32.587Z,90.81
2022-11-03T19:50:01.356Z,90.42
2022-11-03T19:52:29.815Z,90.01
2022-11-03T19:54:58.303Z,90.31
2022-11-03T19:57:24.737Z,90.70
2022-11-03T19:59:51.258Z,90.48
2022-11-03T20:02:17.869Z,90.70
2022-11-03T20:04:47.182Z,90.01
2022-11-03T20:07:15.583Z,89.62
2022-11-03T20:09:43.180Z,88.84
2022-11-03T20:12:14.501Z,88.57
2022-11-03T20:14:41.066Z,88.86
2022-11-03T20:17:17.460Z,89.03
2022-11-03T20:19:44.288Z,88.80
2022-11-03T20:22:16.738Z,88.79
2022-11-03T20:24:46.015Z,88.61
2022-11-03T20:27:12.850Z,88.71
2022-11-03T20:29:39.974Z,88.44
2022-11-03T20:32:07.323Z,88.67
2022-11-03T20:34:33.809Z,89.66
2022-11-03T20:37:04.557Z,89.51
2022-11-03T20:39:31.142Z,89.48
2022-11-03T20:41:57.567Z,89.11
2022-11-03T20:44:24.014Z,89.63
2022-11-03T20:46:50.544Z,90.28
2022-11-03T20:49:16.971Z,89.97
2022-11-03T20:51:46.324Z,89.99
2022-11-03T20:54:20.859Z,90.73
2022-11-03T20:56:47.783Z,90.31
2022-11-03T20:59:17.566Z,90.55
2022-11-03T21:02:06.626Z,90.42
2022-11-03T21:04:33.236Z,90.62
2022-11-03T21:06:59.726Z,90.19
2022-11-03T21:09:26.118Z,90.72
2022-11-03T21:11:53.020Z,90.29
2022-11-03T21:14:29.485Z,90.41
2022-11-03T21:17:14.654Z,90.92
2022-11-03T21:19:59.275Z,90.73
2022-11-03T21:22:54.040Z,90.55
2022-11-03T21:25:25.306Z,90.12
2022-11-03T21:27:55.318Z,90.27
2022-11-03T21:30:23.174Z,90.94
2022-11-03T21:32:49.684Z,91.09
2022-11-03T21:35:21.492Z,90.61
2022-11-03T21:37:48.127Z,91.20
2022-11-03T21:40:14.694Z,91.31
2022-11-03T21:42:59.712Z,91.22
2022-11-03T21:45:26.300Z,90.42
2022-11-03T21:48:13.949Z,91.31
2022-11-03T21:50:42.043Z,94.20
2022-11-03T21:53:09.043Z,93.39
2022-11-03T21:55:35.878Z,95.22
2022-11-03T21:58:03.230Z,94.91
2022-11-03T22:00:31.268Z,94.98
2022-11-03T22:02:59.224Z,96.89
2022-11-03T22:05:26.423Z,96.80
2022-11-03T22:07:52.953Z,96.31
2022-11-03T22:10:19.416Z,97.01
2022-11-03T22:12:45.969Z,98.43
2022-11-03T22:15:31.040Z,97.88
2022-11-03T22:18:05.856Z,99.30
2022-11-03T22:20:51.380Z,99.72
2022-11-03T22:23:36.486Z,99.74
2022-11-03T22:26:21.521Z,99.17
2022-11-03T22:29:07.927Z,100.00
2022-11-03T22:31:52.237Z,100.00
2022-11-03T22:34:37.317Z,100.00
2022-11-03T22:37:03.675Z,100.00
2022-11-03T22:39:49.106Z,100.00
2022-11-03T22:42:34.134Z,100.00
2022-11-03T22:45:19.280Z,100.00
2022-11-03T22:47:45.676Z,100.00
2022-11-03T22:50:12.095Z,100.00
2022-11-03T22:52:38.538Z,100.00
2022-11-03T22:55:05.228Z,100.00
2022-11-03T22:57:31.646Z,100.00
2022-11-03T22:59:58.047Z,100.00
